Terminal Aerodrome Forecast
Issued by NWS Blacksburg, VA

Home | Current Version | Previous Version | Text Only | Print | Product List | Glossary On
Versions: 1 2 3 4 5 6 7 8 9 10 11 12 13
000
FTUS41 KRNK 242332
TAFDAN
TAF
KDAN 242332Z 2500/2524 17007KT P6SM SCT100 BKN250
     FM250900 VRB03KT P6SM SCT025 OVC100
     FM251200 16005KT P6SM OVC025
     FM251500 16007KT P6SM -SHRA OVC025
     FM252000 25011KT 3SM -TSRA OVC035CB
     FM252200 27013G23KT P6SM BKN050=

USA.gov is the U.S. government's official web portal to all federal, state and local government web resources and services.